createdAt,value
2022-10-11T00:02:26.459Z,99461.75
2022-10-11T00:05:04.298Z,99459.03
2022-10-11T00:07:42.306Z,99441.81
2022-10-11T00:10:21.154Z,99449.72
2022-10-11T00:12:59.407Z,99458.69
2022-10-11T00:15:39.291Z,99462.88
2022-10-11T00:18:16.702Z,99458.56
2022-10-11T00:21:05.569Z,99473.31
2022-10-11T00:23:44.866Z,99471.84
2022-10-11T00:26:22.984Z,99481.16
2022-10-11T00:29:01.918Z,99455.63
2022-10-11T00:31:40.978Z,99470.56
2022-10-11T00:34:19.174Z,99471.53
2022-10-11T00:36:57.367Z,99480.00
2022-10-11T00:39:34.241Z,99468.72
2022-10-11T00:42:15.924Z,99484.19
2022-10-11T00:45:27.315Z,99484.22
2022-10-11T00:48:11.889Z,99443.13
2022-10-11T00:50:49.506Z,99490.88
2022-10-11T00:53:28.831Z,99444.25
2022-10-11T00:56:13.226Z,99485.31
2022-10-11T00:58:52.859Z,99484.84
2022-10-11T01:01:32.654Z,99483.72
2022-10-11T01:04:10.573Z,99496.53
2022-10-11T01:06:49.410Z,99477.56
2022-10-11T01:09:28.793Z,99497.09
2022-10-11T01:12:16.273Z,99494.44
2022-10-11T01:15:17.091Z,99497.69
2022-10-11T01:18:05.860Z,99481.75
2022-10-11T01:20:45.027Z,99482.72
2022-10-11T01:23:44.547Z,99483.38
2022-10-11T01:27:08.998Z,99494.94
2022-10-11T01:29:53.405Z,99503.25
2022-10-11T01:32:44.425Z,99474.41
2022-10-11T01:35:42.047Z,99505.56
2022-10-11T01:38:35.308Z,99506.53
2022-10-11T01:41:24.761Z,99496.03
2022-10-11T01:44:02.984Z,99503.19
2022-10-11T01:46:41.209Z,99508.53
2022-10-11T01:49:19.992Z,99501.78
2022-10-11T01:52:00.996Z,99507.25
2022-10-11T01:55:09.887Z,99509.34
2022-10-11T01:57:54.902Z,99501.66
2022-10-11T02:01:17.959Z,99500.19
2022-10-11T02:04:06.487Z,99502.91
2022-10-11T02:07:13.344Z,99482.50
2022-10-11T02:10:34.540Z,99508.38
2022-10-11T02:13:27.251Z,99512.59
2022-10-11T02:16:08.855Z,99504.75
2022-10-11T02:18:48.952Z,99503.75
2022-10-11T02:21:28.541Z,99501.53
2022-10-11T02:24:09.874Z,99500.59
2022-10-11T02:26:54.146Z,99511.34
2022-10-11T02:29:34.225Z,99458.16
2022-10-11T02:32:12.882Z,99506.66
2022-10-11T02:34:56.155Z,99475.63
2022-10-11T02:37:59.084Z,99507.00
2022-10-11T02:40:38.168Z,99512.25
2022-10-11T02:43:33.399Z,99488.63
2022-10-11T02:46:11.030Z,99512.56
2022-10-11T02:48:49.165Z,99499.69
2022-10-11T02:51:30.127Z,99512.47
2022-10-11T02:54:09.162Z,99512.97
2022-10-11T02:56:47.539Z,99517.63
2022-10-11T02:59:26.769Z,99517.47
2022-10-11T03:02:04.912Z,99516.50
2022-10-11T03:04:43.570Z,99512.13
2022-10-11T03:07:21.789Z,99511.16
2022-10-11T03:09:59.996Z,99504.25
2022-10-11T03:12:38.676Z,99518.88
2022-10-11T03:15:17.980Z,99518.84
2022-10-11T03:17:56.245Z,99517.06
2022-10-11T03:20:34.753Z,99516.75
2022-10-11T03:23:13.167Z,99512.06
2022-10-11T03:25:52.388Z,99517.63
2022-10-11T03:28:30.670Z,99519.19
2022-10-11T03:31:09.502Z,99521.41
2022-10-11T03:33:48.592Z,99531.84
2022-10-11T03:36:26.783Z,99536.41
2022-10-11T03:39:05.059Z,99535.81
2022-10-11T03:41:43.935Z,99511.72
2022-10-11T03:44:23.506Z,99531.31
2022-10-11T03:47:03.606Z,99539.47
2022-10-11T03:49:43.743Z,99537.03
2022-10-11T03:52:22.024Z,99552.38
2022-10-11T03:55:00.192Z,99552.97
2022-10-11T03:57:38.943Z,99554.03
2022-10-11T04:00:17.346Z,99552.75
2022-10-11T04:02:56.531Z,99550.84
2022-10-11T04:05:35.322Z,99554.25
2022-10-11T04:08:20.894Z,99546.09
2022-10-11T04:11:00.315Z,99550.00
2022-10-11T04:13:39.512Z,99551.03
2022-10-11T04:16:18.855Z,99551.03
2022-10-11T04:18:57.769Z,99552.03
2022-10-11T04:21:37.748Z,99549.81
2022-10-11T04:24:17.285Z,99557.50
2022-10-11T04:26:55.490Z,99550.94
2022-10-11T04:29:35.136Z,99562.72
2022-10-11T04:32:13.430Z,99562.78
2022-10-11T04:34:51.629Z,99569.41
2022-10-11T04:37:29.867Z,99573.69
2022-10-11T04:40:10.531Z,99578.25
2022-10-11T04:42:50.630Z,99581.25
2022-10-11T04:45:28.735Z,99587.34
2022-10-11T04:48:06.849Z,99587.34
2022-10-11T04:50:46.085Z,99596.66
2022-10-11T04:53:29.377Z,99583.66
2022-10-11T04:56:11.244Z,99593.13
2022-10-11T04:58:49.545Z,99597.81
2022-10-11T05:01:27.380Z,99581.06
2022-10-11T05:04:06.383Z,99587.34
2022-10-11T05:06:46.083Z,99577.75
2022-10-11T05:09:26.763Z,99596.53
2022-10-11T05:12:06.174Z,99574.22
2022-10-11T05:14:45.460Z,99603.94
2022-10-11T05:17:24.108Z,99611.19
2022-10-11T05:20:02.997Z,99610.34
2022-10-11T05:22:41.021Z,99610.31
2022-10-11T05:25:20.433Z,99623.00
2022-10-11T05:28:00.551Z,99619.34
2022-10-11T05:30:39.311Z,99623.13
2022-10-11T05:33:16.333Z,99623.00
2022-10-11T05:35:57.428Z,99626.22
2022-10-11T05:38:39.363Z,99635.25
2022-10-11T05:41:17.670Z,99628.38
2022-10-11T05:43:56.239Z,99633.97
2022-10-11T05:46:35.479Z,99633.28
2022-10-11T05:49:15.067Z,99635.38
2022-10-11T05:51:54.982Z,99636.38
2022-10-11T05:54:34.421Z,99642.22
2022-10-11T05:57:14.754Z,99635.84
2022-10-11T05:59:53.926Z,99657.63
2022-10-11T06:02:33.947Z,99657.72
2022-10-11T06:05:13.912Z,99663.31
2022-10-11T06:07:52.899Z,99664.47
2022-10-11T06:10:31.198Z,99663.78
2022-10-11T06:13:08.012Z,99668.13
2022-10-11T06:15:45.408Z,99677.09
2022-10-11T06:18:41.396Z,99679.47
2022-10-11T06:21:20.806Z,99689.75
2022-10-11T06:24:17.697Z,99698.72
2022-10-11T06:27:13.754Z,99709.06
2022-10-11T06:29:52.403Z,99715.72
2022-10-11T06:32:50.041Z,99717.66
2022-10-11T06:35:59.353Z,99724.31
2022-10-11T06:38:55.267Z,99716.63
2022-10-11T06:41:51.310Z,99720.75
2022-10-11T06:44:48.645Z,99729.59
2022-10-11T06:47:45.506Z,99728.63
2022-10-11T06:50:59.115Z,99728.59
2022-10-11T06:53:57.765Z,99735.00
2022-10-11T06:57:08.913Z,99735.53
2022-10-11T07:00:09.047Z,99741.03
2022-10-11T07:03:20.741Z,99741.97
2022-10-11T07:06:20.060Z,99721.19
2022-10-11T07:09:19.551Z,99744.56
2022-10-11T07:12:12.179Z,99754.16
2022-10-11T07:15:13.681Z,99759.88
2022-10-11T07:18:09.056Z,99758.16
2022-10-11T07:21:10.553Z,99764.28
2022-10-11T07:24:07.712Z,99773.06
2022-10-11T07:27:12.945Z,99776.09
2022-10-11T07:29:51.097Z,99784.66
2022-10-11T07:32:29.794Z,99778.09
2022-10-11T07:35:43.744Z,99782.16
2022-10-11T07:38:44.155Z,99770.38
2022-10-11T07:41:51.075Z,99788.38
2022-10-11T07:44:59.476Z,99788.78
2022-10-11T07:47:58.013Z,99786.25
2022-10-11T07:51:26.490Z,99788.19
2022-10-11T07:54:22.763Z,99802.28
2022-10-11T07:57:15.720Z,99775.47
2022-10-11T08:00:15.218Z,99802.91
2022-10-11T08:03:09.295Z,99798.13
2022-10-11T08:06:06.600Z,99812.81
2022-10-11T08:09:02.833Z,99807.78
2022-10-11T08:11:55.827Z,99803.28
2022-10-11T08:14:51.320Z,99807.47
2022-10-11T08:17:47.543Z,99800.09
2022-10-11T08:20:51.974Z,99820.19
2022-10-11T08:23:49.844Z,99822.16
2022-10-11T08:26:27.316Z,99828.09
2022-10-11T08:29:32.738Z,99820.88
2022-10-11T08:32:29.581Z,99829.13
2022-10-11T08:35:24.663Z,99815.44
2022-10-11T08:38:29.892Z,99830.13
2022-10-11T08:41:43.707Z,99832.69
2022-10-11T08:45:08.842Z,99829.75
2022-10-11T08:47:36.778Z,99830.53
2022-10-11T08:50:07.472Z,99835.88
2022-10-11T08:52:43.224Z,99833.56
2022-10-11T08:55:21.485Z,99835.81
2022-10-11T08:57:53.173Z,99842.34
2022-10-11T09:00:20.364Z,99844.69
2022-10-11T09:03:07.580Z,99840.56
2022-10-11T09:05:39.999Z,99846.25
2022-10-11T09:08:09.161Z,99848.47
2022-10-11T09:10:58.117Z,99850.97
2022-10-11T09:14:01.491Z,99848.13
2022-10-11T09:16:47.596Z,99852.59
2022-10-11T09:19:37.244Z,99855.34
2022-10-11T09:22:13.306Z,99855.28
2022-10-11T09:24:55.308Z,99863.03
2022-10-11T09:28:00.821Z,99862.69
2022-10-11T09:30:23.469Z,99854.31
2022-10-11T09:33:16.299Z,99864.41
2022-10-11T09:35:47.018Z,99821.59
2022-10-11T09:38:45.670Z,99867.75
2022-10-11T09:41:26.499Z,99873.41
2022-10-11T09:43:53.488Z,99870.63
2022-10-11T09:46:50.001Z,99876.44
2022-10-11T09:49:18.742Z,99879.53
2022-10-11T09:51:50.016Z,99879.50
2022-10-11T09:54:17.223Z,99864.72
2022-10-11T09:56:45.237Z,99871.97
2022-10-11T09:59:27.410Z,99889.91
2022-10-11T10:02:12.846Z,99878.25
2022-10-11T10:05:01.066Z,99875.78
2022-10-11T10:07:29.193Z,99887.22
2022-10-11T10:09:58.494Z,99886.78
2022-10-11T10:12:30.035Z,99889.53
2022-10-11T10:15:08.309Z,99887.13
2022-10-11T10:17:35.879Z,99893.13
2022-10-11T10:20:05.579Z,99896.16
2022-10-11T10:22:34.072Z,99893.69
2022-10-11T10:25:02.472Z,99900.63
2022-10-11T10:27:30.354Z,99897.63
2022-10-11T10:30:13.563Z,99905.34
2022-10-11T10:32:58.209Z,99906.31
2022-10-11T10:35:40.205Z,99910.16
2022-10-11T10:38:11.279Z,99907.41
2022-10-11T10:40:44.115Z,99907.63
2022-10-11T10:43:17.620Z,99917.78
2022-10-11T10:45:57.340Z,99914.50
2022-10-11T10:49:12.005Z,99910.63
2022-10-11T10:51:30.863Z,99916.28
2022-10-11T10:54:06.572Z,99893.06
2022-10-11T10:56:51.391Z,99911.84
2022-10-11T10:59:59.700Z,99916.66
2022-10-11T11:02:44.774Z,99910.47
2022-10-11T11:05:40.060Z,99907.22
2022-10-11T11:08:34.797Z,99916.72
2022-10-11T11:11:52.463Z,99906.66
2022-10-11T11:14:22.073Z,99886.19
2022-10-11T11:17:09.443Z,99902.44
2022-10-11T11:19:38.773Z,99901.94
2022-10-11T11:22:06.789Z,99904.25
2022-10-11T11:24:51.706Z,99906.44
2022-10-11T11:27:38.809Z,99909.22
2022-10-11T11:30:29.875Z,99894.94
2022-10-11T11:33:15.841Z,99909.31
2022-10-11T11:35:47.635Z,99909.97
2022-10-11T11:38:27.120Z,99911.69
2022-10-11T11:40:58.696Z,99906.88
2022-10-11T11:43:35.364Z,99902.06
2022-10-11T11:46:23.586Z,99911.78
2022-10-11T11:48:51.546Z,99901.34
2022-10-11T11:51:31.535Z,99881.81
2022-10-11T11:54:06.254Z,99902.94
2022-10-11T11:56:45.247Z,99903.75
2022-10-11T11:59:29.551Z,99906.31
2022-10-11T12:02:15.152Z,99903.56
2022-10-11T12:04:42.799Z,99876.53
2022-10-11T12:07:16.212Z,99895.66
2022-10-11T12:09:50.746Z,99873.63
2022-10-11T12:12:34.137Z,99893.00
2022-10-11T12:15:04.168Z,99890.69
2022-10-11T12:17:31.055Z,99894.47
2022-10-11T12:19:59.911Z,99857.41
2022-10-11T12:22:26.783Z,99887.91
2022-10-11T12:25:22.187Z,99893.22
2022-10-11T12:27:53.071Z,99880.13
2022-10-11T12:30:48.075Z,99874.16
2022-10-11T12:33:17.761Z,99884.56
2022-10-11T12:35:57.005Z,99872.03
2022-10-11T12:38:34.736Z,99878.34
2022-10-11T12:41:10.822Z,99881.06
2022-10-11T12:43:49.740Z,99878.91
2022-10-11T12:46:28.549Z,99882.38
2022-10-11T12:49:33.353Z,99877.38
2022-10-11T12:52:18.243Z,99879.88
2022-10-11T12:55:07.759Z,99873.47
2022-10-11T12:57:59.288Z,99873.09
2022-10-11T13:00:32.055Z,99873.34
2022-10-11T13:03:04.713Z,99871.66
2022-10-11T13:05:50.992Z,99846.19
2022-10-11T13:08:28.765Z,99869.28
2022-10-11T13:11:03.446Z,99864.38
2022-10-11T13:13:38.924Z,99860.16
2022-10-11T13:16:19.193Z,99872.22
2022-10-11T13:18:48.282Z,99882.16
2022-10-11T13:21:21.472Z,99874.22
2022-10-11T13:23:54.910Z,99855.00
2022-10-11T13:26:21.932Z,99872.97
2022-10-11T13:28:48.987Z,99874.50
2022-10-11T13:31:16.045Z,99870.31
2022-10-11T13:33:43.022Z,99868.09
2022-10-11T13:36:14.601Z,99877.13
2022-10-11T13:38:41.592Z,99873.00
2022-10-11T13:41:09.487Z,99876.13
2022-10-11T13:43:36.643Z,99873.81
2022-10-11T13:46:06.759Z,99855.44
2022-10-11T13:48:39.373Z,99874.03
2022-10-11T13:51:12.484Z,99867.28
2022-10-11T13:54:02.930Z,99868.25
2022-10-11T13:56:35.216Z,99874.72
2022-10-11T13:59:02.269Z,99873.06
2022-10-11T14:01:37.004Z,99873.50
2022-10-11T14:04:05.943Z,99867.72
2022-10-11T14:06:48.959Z,99878.59
2022-10-11T14:09:31.153Z,99872.00
2022-10-11T14:12:26.100Z,99870.13
2022-10-11T14:14:53.069Z,99870.59
2022-10-11T14:17:21.888Z,99869.16
2022-10-11T14:20:07.362Z,99880.66
2022-10-11T14:22:37.238Z,99877.56
2022-10-11T14:25:04.472Z,99872.13
2022-10-11T14:27:31.477Z,99875.34
2022-10-11T14:30:25.115Z,99875.00
2022-10-11T14:32:46.276Z,99876.25
2022-10-11T14:35:21.618Z,99878.56
2022-10-11T14:37:48.570Z,99874.63
2022-10-11T14:40:20.439Z,99886.56
2022-10-11T14:42:47.352Z,99884.94
2022-10-11T14:45:14.277Z,99878.63
2022-10-11T14:47:43.061Z,99890.47
2022-10-11T14:50:22.955Z,99885.41
2022-10-11T14:52:49.871Z,99879.88
2022-10-11T14:55:16.734Z,99887.53
2022-10-11T14:57:43.694Z,99888.44
2022-10-11T15:00:19.855Z,99886.63
2022-10-11T15:02:47.033Z,99892.53
2022-10-11T15:05:13.879Z,99889.41
2022-10-11T15:07:40.728Z,99890.56
2022-10-11T15:10:37.860Z,99897.59
2022-10-11T15:13:05.043Z,99891.53
2022-10-11T15:15:35.361Z,99900.09
2022-10-11T15:18:03.035Z,99904.75
2022-10-11T15:20:37.459Z,99905.06
2022-10-11T15:23:04.820Z,99900.72
2022-10-11T15:25:31.717Z,99887.81
2022-10-11T15:27:58.568Z,99896.31
2022-10-11T15:30:28.168Z,99908.63
2022-10-11T15:32:55.145Z,99911.31
2022-10-11T15:35:22.981Z,99906.16
2022-10-11T15:37:54.313Z,99909.25
2022-10-11T15:40:34.795Z,99889.25
2022-10-11T15:43:01.965Z,99921.19
2022-10-11T15:45:29.171Z,99897.16
2022-10-11T15:47:56.033Z,99924.34
2022-10-11T15:50:34.710Z,99926.63
2022-10-11T15:53:05.267Z,99921.03
2022-10-11T15:55:33.135Z,99925.31
2022-10-11T15:58:01.216Z,99921.38
2022-10-11T16:00:28.325Z,99920.16
2022-10-11T16:02:55.253Z,99921.66
2022-10-11T16:05:24.719Z,99929.50
2022-10-11T16:07:52.143Z,99932.63
2022-10-11T16:10:19.502Z,99936.53
2022-10-11T16:12:46.374Z,99941.44
2022-10-11T16:15:13.674Z,99947.69
2022-10-11T16:17:40.550Z,99901.13
2022-10-11T16:20:08.013Z,99942.06
2022-10-11T16:22:35.116Z,99952.56
2022-10-11T16:25:02.491Z,99938.56
2022-10-11T16:27:29.736Z,99947.84
2022-10-11T16:29:56.805Z,99945.75
2022-10-11T16:32:24.322Z,99944.88
2022-10-11T16:34:51.502Z,99944.09
2022-10-11T16:37:18.472Z,99945.59
2022-10-11T16:39:45.628Z,99921.06
2022-10-11T16:42:12.564Z,99948.59
2022-10-11T16:44:39.442Z,99915.72
2022-10-11T16:47:06.304Z,99950.72
2022-10-11T16:49:33.226Z,99951.75
2022-10-11T16:52:00.766Z,99948.38
2022-10-11T16:54:27.672Z,99964.03
2022-10-11T16:56:54.530Z,99956.00
2022-10-11T16:59:21.348Z,99955.13
2022-10-11T17:01:48.220Z,99958.81
2022-10-11T17:04:15.217Z,99964.22
2022-10-11T17:06:43.904Z,99971.25
2022-10-11T17:09:10.941Z,99967.25
2022-10-11T17:11:37.823Z,99973.00
2022-10-11T17:14:05.944Z,99976.44
2022-10-11T17:16:33.022Z,99972.66
2022-10-11T17:18:59.960Z,99973.81
2022-10-11T17:21:27.073Z,99953.19
2022-10-11T17:23:53.990Z,99976.25
2022-10-11T17:26:24.884Z,99969.13
2022-10-11T17:28:53.295Z,99983.13
2022-10-11T17:31:20.196Z,99982.47
2022-10-11T17:33:47.215Z,99984.88
2022-10-11T17:36:25.037Z,99983.94
2022-10-11T17:38:52.222Z,99980.88
2022-10-11T17:41:19.281Z,99985.00
2022-10-11T17:43:46.495Z,99960.41
2022-10-11T17:46:14.066Z,99980.50
2022-10-11T17:48:41.028Z,99983.03
2022-10-11T17:51:12.382Z,99986.31
2022-10-11T17:53:39.355Z,99973.59
2022-10-11T17:56:10.841Z,100000.09
2022-10-11T17:58:37.961Z,99988.84
2022-10-11T18:01:06.680Z,99990.69
2022-10-11T18:03:33.923Z,99992.97
2022-10-11T18:06:07.680Z,99994.75
2022-10-11T18:08:39.901Z,99990.78
2022-10-11T18:11:17.799Z,99994.13
2022-10-11T18:13:47.593Z,99988.63
2022-10-11T18:16:15.014Z,99996.97
2022-10-11T18:18:42.409Z,99967.88
2022-10-11T18:21:09.337Z,99983.41
2022-10-11T18:23:38.171Z,99993.47
2022-10-11T18:26:09.740Z,99993.34
2022-10-11T18:28:36.801Z,99996.19
2022-10-11T18:31:12.344Z,99998.50
2022-10-11T18:33:40.363Z,99988.69
2022-10-11T18:36:08.122Z,99997.97
2022-10-11T18:38:35.246Z,99994.72
2022-10-11T18:41:07.147Z,99988.91
2022-10-11T18:43:34.620Z,99994.72
2022-10-11T18:46:12.321Z,99995.16
2022-10-11T18:48:45.865Z,99998.09
2022-10-11T18:51:20.124Z,100004.94
2022-10-11T18:53:47.372Z,99976.13
2022-10-11T18:56:14.935Z,99997.28
2022-10-11T18:58:42.122Z,99973.91
2022-10-11T19:01:12.669Z,99997.41
2022-10-11T19:03:39.604Z,99994.31
2022-10-11T19:06:17.228Z,99992.34
2022-10-11T19:08:45.034Z,99990.16
2022-10-11T19:11:13.003Z,99996.44
2022-10-11T19:13:40.065Z,99991.31
2022-10-11T19:16:11.480Z,100000.22
2022-10-11T19:18:43.201Z,99995.72
2022-10-11T19:21:12.513Z,99998.19
2022-10-11T19:23:40.926Z,99996.78
2022-10-11T19:26:09.200Z,100002.75
2022-10-11T19:28:36.619Z,100001.00
2022-10-11T19:31:04.569Z,99968.94
2022-10-11T19:33:32.597Z,100002.97
2022-10-11T19:36:00.022Z,100007.69
2022-10-11T19:38:26.870Z,100014.16
2022-10-11T19:40:53.827Z,100014.50
2022-10-11T19:43:20.991Z,99997.31
2022-10-11T19:45:47.880Z,100010.16
2022-10-11T19:48:14.814Z,100021.34
2022-10-11T19:50:41.717Z,100013.44
2022-10-11T19:53:08.556Z,100011.69
2022-10-11T19:55:35.457Z,100004.25
2022-10-11T19:58:08.086Z,100018.28
2022-10-11T20:00:35.246Z,100010.56
2022-10-11T20:03:02.069Z,100016.41
2022-10-11T20:05:29.049Z,100017.38
2022-10-11T20:07:55.905Z,100016.88
2022-10-11T20:10:22.813Z,100015.13
2022-10-11T20:12:49.910Z,100018.81
2022-10-11T20:15:16.911Z,100020.28
2022-10-11T20:17:50.085Z,100019.81
2022-10-11T20:20:17.322Z,100021.41
2022-10-11T20:22:44.190Z,100022.56
2022-10-11T20:25:11.143Z,100025.16
2022-10-11T20:27:38.047Z,100026.41
2022-10-11T20:30:05.429Z,100021.59
2022-10-11T20:32:32.350Z,100025.47
2022-10-11T20:34:59.224Z,100030.13
2022-10-11T20:37:26.165Z,100023.06
2022-10-11T20:39:53.069Z,100023.69
2022-10-11T20:42:20.015Z,100025.94
2022-10-11T20:44:48.226Z,100025.78
2022-10-11T20:47:15.289Z,100028.31
2022-10-11T20:49:42.105Z,100030.44
2022-10-11T20:52:08.940Z,100034.13
2022-10-11T20:54:35.837Z,100030.72
2022-10-11T20:57:03.025Z,100033.59
2022-10-11T20:59:29.832Z,100037.31
2022-10-11T21:01:56.739Z,100041.16
2022-10-11T21:04:23.565Z,100038.75
2022-10-11T21:06:50.390Z,100036.66
2022-10-11T21:09:17.445Z,100038.09
2022-10-11T21:11:44.400Z,100020.50
2022-10-11T21:14:11.248Z,100035.03
2022-10-11T21:16:38.108Z,100032.44
2022-10-11T21:19:04.984Z,100033.88
2022-10-11T21:21:31.921Z,100032.91
2022-10-11T21:24:00.598Z,100033.13
2022-10-11T21:26:27.767Z,100033.28
2022-10-11T21:28:54.779Z,100036.97
2022-10-11T21:31:21.944Z,100031.59
2022-10-11T21:33:48.838Z,100037.63
2022-10-11T21:36:22.506Z,100030.22
2022-10-11T21:38:51.332Z,100041.50
2022-10-11T21:41:22.666Z,100033.41
2022-10-11T21:43:49.680Z,100031.31
2022-10-11T21:46:18.618Z,100035.47
2022-10-11T21:48:45.891Z,100033.66
2022-10-11T21:51:25.911Z,100040.25
2022-10-11T21:53:53.224Z,100035.72
2022-10-11T21:56:20.055Z,100041.00
2022-10-11T21:58:47.924Z,100037.31
2022-10-11T22:01:14.934Z,100045.34
2022-10-11T22:03:41.928Z,100042.72
2022-10-11T22:06:08.876Z,100042.22
2022-10-11T22:08:35.899Z,100043.66
2022-10-11T22:11:02.775Z,100038.00
2022-10-11T22:13:30.290Z,100047.97
2022-10-11T22:15:57.196Z,100042.31
2022-10-11T22:18:24.503Z,100040.50
2022-10-11T22:20:51.647Z,100037.25
2022-10-11T22:23:19.275Z,100043.69
2022-10-11T22:25:46.447Z,100046.22
2022-10-11T22:28:13.518Z,100047.16
2022-10-11T22:30:40.512Z,100042.31
2022-10-11T22:33:07.343Z,100039.06
2022-10-11T22:35:37.715Z,100037.75
2022-10-11T22:38:05.803Z,100033.72
2022-10-11T22:40:32.649Z,100018.50
2022-10-11T22:42:59.482Z,100032.22
2022-10-11T22:45:26.411Z,100026.19
2022-10-11T22:47:53.231Z,100034.41
2022-10-11T22:50:20.043Z,100030.81
2022-10-11T22:52:46.906Z,100031.75
2022-10-11T22:55:19.596Z,100027.22
2022-10-11T22:57:47.011Z,100025.09
2022-10-11T23:00:14.341Z,100019.75
2022-10-11T23:02:41.171Z,100019.22
2022-10-11T23:05:08.184Z,100027.75
2022-10-11T23:07:35.378Z,100024.31
2022-10-11T23:10:02.641Z,100031.41
2022-10-11T23:12:30.211Z,100033.63
2022-10-11T23:14:57.047Z,100023.91
2022-10-11T23:17:23.947Z,100017.34
2022-10-11T23:19:50.856Z,100019.88
2022-10-11T23:22:17.738Z,100028.69
2022-10-11T23:24:44.674Z,100029.81
2022-10-11T23:27:11.544Z,100026.56
2022-10-11T23:29:40.988Z,100024.75
2022-10-11T23:32:08.376Z,100022.66
2022-10-11T23:34:35.330Z,100026.78
2022-10-11T23:37:02.376Z,100026.28
2022-10-11T23:39:29.287Z,100023.34
2022-10-11T23:41:56.124Z,100030.22
2022-10-11T23:44:22.956Z,100025.69
2022-10-11T23:46:49.889Z,100024.38
2022-10-11T23:49:16.731Z,100026.09
2022-10-11T23:51:43.550Z,100029.75
2022-10-11T23:54:10.462Z,100033.09
2022-10-11T23:56:37.518Z,100030.97
2022-10-11T23:59:04.336Z,100035.91
